sensor_id;sensor_type;location;lat;lon;timestamp;temperature;humidity
2363;DHT22;64265;51.664;7.626;2022-12-18T00:01:50;21.80;52.80
2363;DHT22;64265;51.664;7.626;2022-12-18T00:04:22;21.80;52.90
2363;DHT22;64265;51.664;7.626;2022-12-18T00:06:49;21.80;52.90
2363;DHT22;64265;51.664;7.626;2022-12-18T00:09:16;21.80;53.00
2363;DHT22;64265;51.664;7.626;2022-12-18T00:11:43;21.90;52.80
2363;DHT22;64265;51.664;7.626;2022-12-18T00:14:11;21.90;52.80
2363;DHT22;64265;51.664;7.626;2022-12-18T00:16:39;21.90;52.80
2363;DHT22;64265;51.664;7.626;2022-12-18T00:19:06;21.90;52.80
2363;DHT22;64265;51.664;7.626;2022-12-18T00:21:33;21.90;52.80
2363;DHT22;64265;51.664;7.626;2022-12-18T00:24:00;21.80;52.80
2363;DHT22;64265;51.664;7.626;2022-12-18T00:26:29;21.80;52.80
2363;DHT22;64265;51.664;7.626;2022-12-18T00:28:58;21.80;52.80
2363;DHT22;64265;51.664;7.626;2022-12-18T00:31:27;21.80;52.90
2363;DHT22;64265;51.664;7.626;2022-12-18T00:33:54;22.10;52.90
2363;DHT22;64265;51.664;7.626;2022-12-18T00:36:23;22.20;52.80
2363;DHT22;64265;51.664;7.626;2022-12-18T00:38:49;22.30;52.80
2363;DHT22;64265;51.664;7.626;2022-12-18T00:41:18;22.30;52.70
2363;DHT22;64265;51.664;7.626;2022-12-18T00:44:06;22.30;52.50
2363;DHT22;64265;51.664;7.626;2022-12-18T00:49:55;22.30;52.50
2363;DHT22;64265;51.664;7.626;2022-12-18T00:52:22;22.20;52.70
2363;DHT22;64265;51.664;7.626;2022-12-18T00:54:49;22.10;53.20
2363;DHT22;64265;51.664;7.626;2022-12-18T00:57:15;22.00;52.80
2363;DHT22;64265;51.664;7.626;2022-12-18T00:59:42;22.00;52.80
2363;DHT22;64265;51.664;7.626;2022-12-18T01:02:09;21.90;52.80
2363;DHT22;64265;51.664;7.626;2022-12-18T01:04:35;21.90;52.80
2363;DHT22;64265;51.664;7.626;2022-12-18T01:07:03;21.80;52.80
2363;DHT22;64265;51.664;7.626;2022-12-18T01:09:30;21.80;52.80
2363;DHT22;64265;51.664;7.626;2022-12-18T01:11:57;21.80;52.90
2363;DHT22;64265;51.664;7.626;2022-12-18T01:14:23;21.90;53.40
2363;DHT22;64265;51.664;7.626;2022-12-18T01:16:50;21.80;52.90
2363;DHT22;64265;51.664;7.626;2022-12-18T01:19:17;21.80;52.70
2363;DHT22;64265;51.664;7.626;2022-12-18T01:21:44;21.80;52.70
2363;DHT22;64265;51.664;7.626;2022-12-18T01:24:12;21.80;52.70
2363;DHT22;64265;51.664;7.626;2022-12-18T01:26:39;21.90;52.80
2363;DHT22;64265;51.664;7.626;2022-12-18T01:29:05;21.90;52.80
2363;DHT22;64265;51.664;7.626;2022-12-18T01:31:35;21.80;52.70
2363;DHT22;64265;51.664;7.626;2022-12-18T01:34:03;21.80;52.70
2363;DHT22;64265;51.664;7.626;2022-12-18T01:36:32;21.70;52.70
2363;DHT22;64265;51.664;7.626;2022-12-18T01:39:00;21.80;53.20
2363;DHT22;64265;51.664;7.626;2022-12-18T01:41:30;21.80;52.70
2363;DHT22;64265;51.664;7.626;2022-12-18T01:44:55;21.80;52.70
2363;DHT22;64265;51.664;7.626;2022-12-18T01:47:25;21.80;52.70
2363;DHT22;64265;51.664;7.626;2022-12-18T01:49:52;21.70;52.60
2363;DHT22;64265;51.664;7.626;2022-12-18T01:52:20;21.80;52.70
2363;DHT22;64265;51.664;7.626;2022-12-18T01:54:48;21.90;52.80
2363;DHT22;64265;51.664;7.626;2022-12-18T01:57:19;21.90;52.60
2363;DHT22;64265;51.664;7.626;2022-12-18T01:59:50;21.90;52.70
2363;DHT22;64265;51.664;7.626;2022-12-18T02:02:19;21.90;52.60
2363;DHT22;64265;51.664;7.626;2022-12-18T02:04:46;21.90;52.60
2363;DHT22;64265;51.664;7.626;2022-12-18T02:07:20;21.90;52.60
2363;DHT22;64265;51.664;7.626;2022-12-18T02:09:52;21.80;52.60
2363;DHT22;64265;51.664;7.626;2022-12-18T02:12:23;21.90;52.50
2363;DHT22;64265;51.664;7.626;2022-12-18T02:14:57;21.80;52.50
2363;DHT22;64265;51.664;7.626;2022-12-18T02:17:30;21.80;52.60
2363;DHT22;64265;51.664;7.626;2022-12-18T02:20:07;21.80;52.60
2363;DHT22;64265;51.664;7.626;2022-12-18T02:22:43;21.90;52.50
2363;DHT22;64265;51.664;7.626;2022-12-18T02:25:20;21.90;52.50
2363;DHT22;64265;51.664;7.626;2022-12-18T02:27:50;21.90;52.50
2363;DHT22;64265;51.664;7.626;2022-12-18T02:30:17;21.90;52.40
2363;DHT22;64265;51.664;7.626;2022-12-18T02:32:48;21.80;52.50
2363;DHT22;64265;51.664;7.626;2022-12-18T02:35:19;21.80;52.60
2363;DHT22;64265;51.664;7.626;2022-12-18T02:37:47;21.80;52.40
2363;DHT22;64265;51.664;7.626;2022-12-18T02:40:15;21.80;52.50
2363;DHT22;64265;51.664;7.626;2022-12-18T02:42:43;21.90;52.50
2363;DHT22;64265;51.664;7.626;2022-12-18T02:45:11;21.80;52.40
2363;DHT22;64265;51.664;7.626;2022-12-18T02:47:40;21.80;52.50
2363;DHT22;64265;51.664;7.626;2022-12-18T02:50:16;21.80;52.40
2363;DHT22;64265;51.664;7.626;2022-12-18T02:52:53;21.90;52.50
2363;DHT22;64265;51.664;7.626;2022-12-18T02:55:30;21.80;52.40
2363;DHT22;64265;51.664;7.626;2022-12-18T02:58:04;21.90;52.40
2363;DHT22;64265;51.664;7.626;2022-12-18T03:00:36;21.90;52.40
2363;DHT22;64265;51.664;7.626;2022-12-18T03:03:07;21.90;52.40
2363;DHT22;64265;51.664;7.626;2022-12-18T03:05:38;21.90;52.40
2363;DHT22;64265;51.664;7.626;2022-12-18T03:08:08;21.80;52.40
2363;DHT22;64265;51.664;7.626;2022-12-18T03:10:39;21.80;52.40
2363;DHT22;64265;51.664;7.626;2022-12-18T03:13:12;21.90;52.40
2363;DHT22;64265;51.664;7.626;2022-12-18T03:15:44;21.90;52.40
2363;DHT22;64265;51.664;7.626;2022-12-18T03:18:15;21.90;52.40
2363;DHT22;64265;51.664;7.626;2022-12-18T03:20:43;21.90;52.40
2363;DHT22;64265;51.664;7.626;2022-12-18T03:23:14;21.80;52.40
2363;DHT22;64265;51.664;7.626;2022-12-18T03:25:44;21.80;52.40
2363;DHT22;64265;51.664;7.626;2022-12-18T03:28:14;21.80;52.40
2363;DHT22;64265;51.664;7.626;2022-12-18T03:30:44;21.80;52.50
2363;DHT22;64265;51.664;7.626;2022-12-18T03:33:16;21.70;52.40
2363;DHT22;64265;51.664;7.626;2022-12-18T03:35:45;21.70;52.40
2363;DHT22;64265;51.664;7.626;2022-12-18T03:38:13;21.90;52.40
2363;DHT22;64265;51.664;7.626;2022-12-18T03:40:50;21.90;52.40
2363;DHT22;64265;51.664;7.626;2022-12-18T03:43:22;21.80;52.40
2363;DHT22;64265;51.664;7.626;2022-12-18T03:45:55;21.80;52.40
2363;DHT22;64265;51.664;7.626;2022-12-18T03:48:29;21.80;52.40
2363;DHT22;64265;51.664;7.626;2022-12-18T03:51:00;21.80;52.40
2363;DHT22;64265;51.664;7.626;2022-12-18T03:53:34;21.80;52.40
2363;DHT22;64265;51.664;7.626;2022-12-18T03:56:02;21.70;52.30
2363;DHT22;64265;51.664;7.626;2022-12-18T03:58:32;21.80;52.40
2363;DHT22;64265;51.664;7.626;2022-12-18T04:01:03;21.80;52.40
2363;DHT22;64265;51.664;7.626;2022-12-18T04:03:32;21.80;52.40
2363;DHT22;64265;51.664;7.626;2022-12-18T04:05:59;21.70;52.40
2363;DHT22;64265;51.664;7.626;2022-12-18T04:08:27;21.80;52.40
2363;DHT22;64265;51.664;7.626;2022-12-18T04:10:54;21.80;52.40
2363;DHT22;64265;51.664;7.626;2022-12-18T04:13:24;21.80;52.30
2363;DHT22;64265;51.664;7.626;2022-12-18T04:15:53;21.80;52.20
2363;DHT22;64265;51.664;7.626;2022-12-18T04:18:21;21.80;52.20
2363;DHT22;64265;51.664;7.626;2022-12-18T04:20:48;21.80;52.30
2363;DHT22;64265;51.664;7.626;2022-12-18T04:23:15;21.80;52.30
2363;DHT22;64265;51.664;7.626;2022-12-18T04:25:42;21.80;52.30
2363;DHT22;64265;51.664;7.626;2022-12-18T04:28:08;21.80;52.30
2363;DHT22;64265;51.664;7.626;2022-12-18T04:30:35;21.80;52.30
2363;DHT22;64265;51.664;7.626;2022-12-18T04:33:02;21.80;52.30
2363;DHT22;64265;51.664;7.626;2022-12-18T04:35:30;21.80;52.10
2363;DHT22;64265;51.664;7.626;2022-12-18T04:37:56;21.80;52.30
2363;DHT22;64265;51.664;7.626;2022-12-18T04:40:23;21.80;52.10
2363;DHT22;64265;51.664;7.626;2022-12-18T04:42:50;21.70;52.10
2363;DHT22;64265;51.664;7.626;2022-12-18T04:45:16;21.70;52.20
2363;DHT22;64265;51.664;7.626;2022-12-18T04:47:43;21.60;52.20
2363;DHT22;64265;51.664;7.626;2022-12-18T04:50:10;21.50;52.30
2363;DHT22;64265;51.664;7.626;2022-12-18T04:52:38;21.30;52.40
2363;DHT22;64265;51.664;7.626;2022-12-18T04:55:05;21.10;52.50
2363;DHT22;64265;51.664;7.626;2022-12-18T04:57:32;21.10;52.80
2363;DHT22;64265;51.664;7.626;2022-12-18T04:59:58;21.30;52.80
2363;DHT22;64265;51.664;7.626;2022-12-18T05:02:25;21.50;52.70
2363;DHT22;64265;51.664;7.626;2022-12-18T05:04:52;21.70;52.60
2363;DHT22;64265;51.664;7.626;2022-12-18T05:07:18;21.80;52.40
2363;DHT22;64265;51.664;7.626;2022-12-18T05:09:46;21.80;52.20
2363;DHT22;64265;51.664;7.626;2022-12-18T05:12:13;22.00;52.10
2363;DHT22;64265;51.664;7.626;2022-12-18T05:14:40;22.10;51.90
2363;DHT22;64265;51.664;7.626;2022-12-18T05:17:06;22.20;51.80
2363;DHT22;64265;51.664;7.626;2022-12-18T05:19:33;22.20;51.70
2363;DHT22;64265;51.664;7.626;2022-12-18T05:22:00;22.20;51.70
2363;DHT22;64265;51.664;7.626;2022-12-18T05:24:27;22.20;51.70
2363;DHT22;64265;51.664;7.626;2022-12-18T05:26:55;22.30;51.60
2363;DHT22;64265;51.664;7.626;2022-12-18T05:29:21;22.20;51.60
2363;DHT22;64265;51.664;7.626;2022-12-18T05:31:48;22.20;51.60
2363;DHT22;64265;51.664;7.626;2022-12-18T05:34:15;22.20;51.50
2363;DHT22;64265;51.664;7.626;2022-12-18T05:36:42;22.20;51.60
2363;DHT22;64265;51.664;7.626;2022-12-18T05:39:09;22.30;51.50
2363;DHT22;64265;51.664;7.626;2022-12-18T05:41:35;22.20;51.50
2363;DHT22;64265;51.664;7.626;2022-12-18T05:44:03;22.20;51.70
2363;DHT22;64265;51.664;7.626;2022-12-18T05:46:30;22.10;51.80
2363;DHT22;64265;51.664;7.626;2022-12-18T05:48:59;22.00;51.80
2363;DHT22;64265;51.664;7.626;2022-12-18T05:51:27;21.90;51.80
2363;DHT22;64265;51.664;7.626;2022-12-18T05:53:54;21.90;51.90
2363;DHT22;64265;51.664;7.626;2022-12-18T05:56:21;21.90;51.90
2363;DHT22;64265;51.664;7.626;2022-12-18T05:58:51;21.80;52.00
2363;DHT22;64265;51.664;7.626;2022-12-18T06:01:22;21.80;52.10
2363;DHT22;64265;51.664;7.626;2022-12-18T06:03:49;21.80;52.10
2363;DHT22;64265;51.664;7.626;2022-12-18T06:06:18;21.70;52.20
2363;DHT22;64265;51.664;7.626;2022-12-18T06:08:45;21.70;52.30
2363;DHT22;64265;51.664;7.626;2022-12-18T06:11:12;21.60;52.30
2363;DHT22;64265;51.664;7.626;2022-12-18T06:13:38;21.60;52.30
2363;DHT22;64265;51.664;7.626;2022-12-18T06:16:06;21.60;52.40
2363;DHT22;64265;51.664;7.626;2022-12-18T06:18:34;21.60;52.40
2363;DHT22;64265;51.664;7.626;2022-12-18T06:21:01;21.60;52.40
2363;DHT22;64265;51.664;7.626;2022-12-18T06:23:28;21.60;52.40
2363;DHT22;64265;51.664;7.626;2022-12-18T06:25:55;21.60;52.40
2363;DHT22;64265;51.664;7.626;2022-12-18T06:28:21;21.60;52.50
2363;DHT22;64265;51.664;7.626;2022-12-18T06:30:48;21.60;52.40
2363;DHT22;64265;51.664;7.626;2022-12-18T06:33:16;21.60;52.40
2363;DHT22;64265;51.664;7.626;2022-12-18T06:35:44;21.60;52.40
2363;DHT22;64265;51.664;7.626;2022-12-18T06:38:10;21.60;52.40
2363;DHT22;64265;51.664;7.626;2022-12-18T06:40:38;21.60;52.40
2363;DHT22;64265;51.664;7.626;2022-12-18T06:43:05;21.70;52.40
2363;DHT22;64265;51.664;7.626;2022-12-18T06:45:32;21.70;52.30
2363;DHT22;64265;51.664;7.626;2022-12-18T06:47:58;21.70;52.30
2363;DHT22;64265;51.664;7.626;2022-12-18T06:50:25;21.60;52.30
2363;DHT22;64265;51.664;7.626;2022-12-18T06:52:53;21.70;52.40
2363;DHT22;64265;51.664;7.626;2022-12-18T06:55:20;21.70;52.30
2363;DHT22;64265;51.664;7.626;2022-12-18T06:57:46;21.70;52.30
2363;DHT22;64265;51.664;7.626;2022-12-18T07:00:14;21.60;52.30
2363;DHT22;64265;51.664;7.626;2022-12-18T07:02:40;21.60;52.30
2363;DHT22;64265;51.664;7.626;2022-12-18T07:05:07;21.60;52.30
2363;DHT22;64265;51.664;7.626;2022-12-18T07:07:34;21.60;52.30
2363;DHT22;64265;51.664;7.626;2022-12-18T07:10:02;21.60;52.30
2363;DHT22;64265;51.664;7.626;2022-12-18T07:12:29;21.60;52.40
2363;DHT22;64265;51.664;7.626;2022-12-18T07:14:56;21.60;52.40
2363;DHT22;64265;51.664;7.626;2022-12-18T07:17:22;21.50;52.40
2363;DHT22;64265;51.664;7.626;2022-12-18T07:19:49;21.50;52.40
2363;DHT22;64265;51.664;7.626;2022-12-18T07:22:16;21.60;52.40
2363;DHT22;64265;51.664;7.626;2022-12-18T07:24:42;21.50;52.40
2363;DHT22;64265;51.664;7.626;2022-12-18T07:27:10;21.50;52.40
2363;DHT22;64265;51.664;7.626;2022-12-18T07:29:37;21.50;52.50
2363;DHT22;64265;51.664;7.626;2022-12-18T07:32:04;21.50;52.50
2363;DHT22;64265;51.664;7.626;2022-12-18T07:34:32;21.60;53.10
2363;DHT22;64265;51.664;7.626;2022-12-18T07:36:59;21.80;52.30
2363;DHT22;64265;51.664;7.626;2022-12-18T07:39:25;22.00;52.10
2363;DHT22;64265;51.664;7.626;2022-12-18T07:41:52;22.00;52.00
2363;DHT22;64265;51.664;7.626;2022-12-18T07:44:34;22.00;52.10
2363;DHT22;64265;51.664;7.626;2022-12-18T07:47:01;22.00;51.90
2363;DHT22;64265;51.664;7.626;2022-12-18T07:49:27;22.00;51.90
2363;DHT22;64265;51.664;7.626;2022-12-18T07:51:54;22.00;52.00
2363;DHT22;64265;51.664;7.626;2022-12-18T07:54:21;22.00;52.00
2363;DHT22;64265;51.664;7.626;2022-12-18T07:56:48;22.00;51.90
2363;DHT22;64265;51.664;7.626;2022-12-18T07:59:14;22.00;51.90
2363;DHT22;64265;51.664;7.626;2022-12-18T08:01:43;22.00;52.40
2363;DHT22;64265;51.664;7.626;2022-12-18T08:04:09;22.00;51.80
2363;DHT22;64265;51.664;7.626;2022-12-18T08:06:36;22.00;51.80
2363;DHT22;64265;51.664;7.626;2022-12-18T08:09:03;22.00;51.90
2363;DHT22;64265;51.664;7.626;2022-12-18T08:11:29;22.00;51.90
2363;DHT22;64265;51.664;7.626;2022-12-18T08:13:57;22.00;51.90
2363;DHT22;64265;51.664;7.626;2022-12-18T08:16:24;21.90;51.80
2363;DHT22;64265;51.664;7.626;2022-12-18T08:18:53;22.00;51.90
2363;DHT22;64265;51.664;7.626;2022-12-18T08:21:22;21.90;51.80
2363;DHT22;64265;51.664;7.626;2022-12-18T08:23:49;21.90;51.90
2363;DHT22;64265;51.664;7.626;2022-12-18T08:26:16;21.80;51.90
2363;DHT22;64265;51.664;7.626;2022-12-18T08:28:43;21.80;51.90
2363;DHT22;64265;51.664;7.626;2022-12-18T08:31:10;21.80;52.00
2363;DHT22;64265;51.664;7.626;2022-12-18T08:33:38;21.80;51.90
2363;DHT22;64265;51.664;7.626;2022-12-18T08:36:07;21.80;52.00
2363;DHT22;64265;51.664;7.626;2022-12-18T08:38:34;21.80;52.00
2363;DHT22;64265;51.664;7.626;2022-12-18T08:41:02;21.80;52.00
2363;DHT22;64265;51.664;7.626;2022-12-18T08:43:29;21.80;51.80
2363;DHT22;64265;51.664;7.626;2022-12-18T08:46:13;21.80;52.00
2363;DHT22;64265;51.664;7.626;2022-12-18T08:48:41;21.70;52.10
2363;DHT22;64265;51.664;7.626;2022-12-18T08:51:09;21.60;52.10
2363;DHT22;64265;51.664;7.626;2022-12-18T08:53:36;21.60;52.10
2363;DHT22;64265;51.664;7.626;2022-12-18T08:56:03;21.50;52.20
2363;DHT22;64265;51.664;7.626;2022-12-18T08:58:31;21.40;52.30
2363;DHT22;64265;51.664;7.626;2022-12-18T09:01:00;21.30;53.10
2363;DHT22;64265;51.664;7.626;2022-12-18T09:03:27;21.20;52.70
2363;DHT22;64265;51.664;7.626;2022-12-18T09:05:54;21.00;52.80
2363;DHT22;64265;51.664;7.626;2022-12-18T09:08:22;21.00;53.20
2363;DHT22;64265;51.664;7.626;2022-12-18T09:10:49;21.10;53.40
2363;DHT22;64265;51.664;7.626;2022-12-18T09:13:17;21.30;53.30
2363;DHT22;64265;51.664;7.626;2022-12-18T09:15:45;21.40;53.30
2363;DHT22;64265;51.664;7.626;2022-12-18T09:18:13;21.60;53.00
2363;DHT22;64265;51.664;7.626;2022-12-18T09:20:40;21.90;52.90
2363;DHT22;64265;51.664;7.626;2022-12-18T09:23:07;21.80;52.70
2363;DHT22;64265;51.664;7.626;2022-12-18T09:25:36;22.00;52.70
2363;DHT22;64265;51.664;7.626;2022-12-18T09:28:04;22.50;52.30
2363;DHT22;64265;51.664;7.626;2022-12-18T09:30:31;22.40;51.70
2363;DHT22;64265;51.664;7.626;2022-12-18T09:32:59;22.30;51.90
2363;DHT22;64265;51.664;7.626;2022-12-18T09:35:26;22.30;51.90
2363;DHT22;64265;51.664;7.626;2022-12-18T09:37:54;22.30;51.90
2363;DHT22;64265;51.664;7.626;2022-12-18T09:40:22;22.30;51.90
2363;DHT22;64265;51.664;7.626;2022-12-18T09:42:55;22.30;51.90
2363;DHT22;64265;51.664;7.626;2022-12-18T09:45:23;22.30;52.10
2363;DHT22;64265;51.664;7.626;2022-12-18T09:47:52;22.70;51.80
2363;DHT22;64265;51.664;7.626;2022-12-18T09:50:24;22.70;51.60
2363;DHT22;64265;51.664;7.626;2022-12-18T09:52:55;22.60;51.50
2363;DHT22;64265;51.664;7.626;2022-12-18T09:55:29;22.60;51.70
2363;DHT22;64265;51.664;7.626;2022-12-18T09:58:04;22.50;51.60
2363;DHT22;64265;51.664;7.626;2022-12-18T10:00:32;22.50;51.70
2363;DHT22;64265;51.664;7.626;2022-12-18T10:03:02;22.40;51.80
2363;DHT22;64265;51.664;7.626;2022-12-18T10:05:37;22.30;51.70
2363;DHT22;64265;51.664;7.626;2022-12-18T10:08:10;22.30;51.80
2363;DHT22;64265;51.664;7.626;2022-12-18T10:10:42;22.20;51.80
2363;DHT22;64265;51.664;7.626;2022-12-18T10:13:20;22.10;51.80
2363;DHT22;64265;51.664;7.626;2022-12-18T10:15:58;22.10;51.80
2363;DHT22;64265;51.664;7.626;2022-12-18T10:18:42;22.10;51.80
2363;DHT22;64265;51.664;7.626;2022-12-18T10:21:15;22.10;51.90
2363;DHT22;64265;51.664;7.626;2022-12-18T10:23:51;22.10;51.80
2363;DHT22;64265;51.664;7.626;2022-12-18T10:26:21;22.00;51.90
2363;DHT22;64265;51.664;7.626;2022-12-18T10:28:51;22.00;51.90
2363;DHT22;64265;51.664;7.626;2022-12-18T10:31:21;22.00;51.90
2363;DHT22;64265;51.664;7.626;2022-12-18T10:33:48;22.00;51.80
2363;DHT22;64265;51.664;7.626;2022-12-18T10:36:15;22.00;51.80
2363;DHT22;64265;51.664;7.626;2022-12-18T10:38:42;22.00;51.80
2363;DHT22;64265;51.664;7.626;2022-12-18T10:41:24;22.10;51.80
2363;DHT22;64265;51.664;7.626;2022-12-18T10:44:11;22.00;51.70
2363;DHT22;64265;51.664;7.626;2022-12-18T10:46:39;22.10;51.80
2363;DHT22;64265;51.664;7.626;2022-12-18T10:49:17;22.10;51.80
2363;DHT22;64265;51.664;7.626;2022-12-18T10:51:44;22.00;51.90
2363;DHT22;64265;51.664;7.626;2022-12-18T10:54:14;22.00;52.00
2363;DHT22;64265;51.664;7.626;2022-12-18T10:56:42;22.10;52.10
2363;DHT22;64265;51.664;7.626;2022-12-18T10:59:12;22.10;52.50
2363;DHT22;64265;51.664;7.626;2022-12-18T11:01:48;22.20;52.50
2363;DHT22;64265;51.664;7.626;2022-12-18T11:04:19;22.20;52.50
2363;DHT22;64265;51.664;7.626;2022-12-18T11:06:54;22.10;52.60
2363;DHT22;64265;51.664;7.626;2022-12-18T11:09:23;22.00;53.00
2363;DHT22;64265;51.664;7.626;2022-12-18T11:11:50;21.90;53.20
2363;DHT22;64265;51.664;7.626;2022-12-18T11:14:22;21.90;53.70
2363;DHT22;64265;51.664;7.626;2022-12-18T11:16:50;22.20;53.50
2363;DHT22;64265;51.664;7.626;2022-12-18T11:19:26;22.40;53.30
2363;DHT22;64265;51.664;7.626;2022-12-18T11:21:55;22.70;53.00
2363;DHT22;64265;51.664;7.626;2022-12-18T11:24:27;23.00;52.70
2363;DHT22;64265;51.664;7.626;2022-12-18T11:26:55;23.20;52.40
2363;DHT22;64265;51.664;7.626;2022-12-18T11:29:30;23.20;52.30
2363;DHT22;64265;51.664;7.626;2022-12-18T11:32:19;23.30;52.30
2363;DHT22;64265;51.664;7.626;2022-12-18T11:34:50;23.40;52.20
2363;DHT22;64265;51.664;7.626;2022-12-18T11:37:18;23.50;52.20
2363;DHT22;64265;51.664;7.626;2022-12-18T11:39:49;23.50;52.10
2363;DHT22;64265;51.664;7.626;2022-12-18T11:42:21;23.50;52.10
2363;DHT22;64265;51.664;7.626;2022-12-18T11:44:54;23.40;52.20
2363;DHT22;64265;51.664;7.626;2022-12-18T11:47:28;23.30;52.30
2363;DHT22;64265;51.664;7.626;2022-12-18T11:50:00;23.20;52.50
2363;DHT22;64265;51.664;7.626;2022-12-18T11:52:31;23.10;52.50
2363;DHT22;64265;51.664;7.626;2022-12-18T11:55:00;23.00;52.60
2363;DHT22;64265;51.664;7.626;2022-12-18T11:57:34;22.90;52.70
2363;DHT22;64265;51.664;7.626;2022-12-18T12:00:13;22.90;52.90
2363;DHT22;64265;51.664;7.626;2022-12-18T12:03:11;22.80;52.90
2363;DHT22;64265;51.664;7.626;2022-12-18T12:05:50;22.70;53.00
2363;DHT22;64265;51.664;7.626;2022-12-18T12:08:22;22.70;53.00
2363;DHT22;64265;51.664;7.626;2022-12-18T12:11:02;22.70;53.00
2363;DHT22;64265;51.664;7.626;2022-12-18T12:13:45;22.80;53.20
2363;DHT22;64265;51.664;7.626;2022-12-18T12:16:17;22.70;53.10
2363;DHT22;64265;51.664;7.626;2022-12-18T12:18:58;22.80;53.10
2363;DHT22;64265;51.664;7.626;2022-12-18T12:21:35;22.80;53.10
2363;DHT22;64265;51.664;7.626;2022-12-18T12:24:12;22.80;53.10
2363;DHT22;64265;51.664;7.626;2022-12-18T12:26:52;22.80;53.00
2363;DHT22;64265;51.664;7.626;2022-12-18T12:29:32;22.90;53.10
2363;DHT22;64265;51.664;7.626;2022-12-18T12:32:16;22.90;53.00
2363;DHT22;64265;51.664;7.626;2022-12-18T12:34:53;23.00;53.10
2363;DHT22;64265;51.664;7.626;2022-12-18T12:37:32;23.00;53.10
2363;DHT22;64265;51.664;7.626;2022-12-18T12:40:03;23.00;53.10
2363;DHT22;64265;51.664;7.626;2022-12-18T12:42:33;23.10;53.10
2363;DHT22;64265;51.664;7.626;2022-12-18T12:45:24;23.10;53.00
2363;DHT22;64265;51.664;7.626;2022-12-18T12:47:54;23.20;53.10
2363;DHT22;64265;51.664;7.626;2022-12-18T12:50:22;23.20;53.00
2363;DHT22;64265;51.664;7.626;2022-12-18T12:52:52;23.20;53.00
2363;DHT22;64265;51.664;7.626;2022-12-18T12:55:21;23.20;53.00
2363;DHT22;64265;51.664;7.626;2022-12-18T12:57:58;23.20;53.00
2363;DHT22;64265;51.664;7.626;2022-12-18T13:00:30;23.10;53.00
2363;DHT22;64265;51.664;7.626;2022-12-18T13:03:06;23.10;53.10
2363;DHT22;64265;51.664;7.626;2022-12-18T13:05:40;23.10;53.00
2363;DHT22;64265;51.664;7.626;2022-12-18T13:08:11;23.20;53.20
2363;DHT22;64265;51.664;7.626;2022-12-18T13:10:39;23.10;53.00
2363;DHT22;64265;51.664;7.626;2022-12-18T13:13:08;23.10;53.10
2363;DHT22;64265;51.664;7.626;2022-12-18T13:15:39;23.10;53.20
2363;DHT22;64265;51.664;7.626;2022-12-18T13:18:20;23.00;53.20
2363;DHT22;64265;51.664;7.626;2022-12-18T13:20:49;23.00;53.20
2363;DHT22;64265;51.664;7.626;2022-12-18T13:23:32;23.00;53.30
2363;DHT22;64265;51.664;7.626;2022-12-18T13:26:00;22.90;53.30
2363;DHT22;64265;51.664;7.626;2022-12-18T13:28:52;22.90;53.40
2363;DHT22;64265;51.664;7.626;2022-12-18T13:34:35;22.90;53.40
2363;DHT22;64265;51.664;7.626;2022-12-18T13:37:40;23.00;53.50
2363;DHT22;64265;51.664;7.626;2022-12-18T13:43:33;22.90;53.50
2363;DHT22;64265;51.664;7.626;2022-12-18T13:46:05;22.90;53.50
2363;DHT22;64265;51.664;7.626;2022-12-18T13:48:34;22.90;53.50
2363;DHT22;64265;51.664;7.626;2022-12-18T13:51:05;22.90;53.60
2363;DHT22;64265;51.664;7.626;2022-12-18T13:53:36;22.90;53.60
2363;DHT22;64265;51.664;7.626;2022-12-18T13:56:05;22.80;53.50
2363;DHT22;64265;51.664;7.626;2022-12-18T13:58:32;22.80;53.50
2363;DHT22;64265;51.664;7.626;2022-12-18T14:00:59;22.90;53.60
2363;DHT22;64265;51.664;7.626;2022-12-18T14:03:29;23.20;48.90
2363;DHT22;64265;51.664;7.626;2022-12-18T14:06:01;22.30;41.50
2363;DHT22;64265;51.664;7.626;2022-12-18T14:08:33;21.20;39.60
2363;DHT22;64265;51.664;7.626;2022-12-18T14:11:03;21.00;43.70
2363;DHT22;64265;51.664;7.626;2022-12-18T14:13:33;21.80;46.40
2363;DHT22;64265;51.664;7.626;2022-12-18T14:16:03;22.40;46.90
2363;DHT22;64265;51.664;7.626;2022-12-18T14:18:38;22.80;46.90
2363;DHT22;64265;51.664;7.626;2022-12-18T14:21:20;23.10;47.10
2363;DHT22;64265;51.664;7.626;2022-12-18T14:23:47;23.00;47.30
2363;DHT22;64265;51.664;7.626;2022-12-18T14:26:23;22.90;47.80
2363;DHT22;64265;51.664;7.626;2022-12-18T14:28:51;23.00;48.20
2363;DHT22;64265;51.664;7.626;2022-12-18T14:31:19;23.10;48.50
2363;DHT22;64265;51.664;7.626;2022-12-18T14:33:48;23.20;48.90
2363;DHT22;64265;51.664;7.626;2022-12-18T14:36:17;23.10;48.90
2363;DHT22;64265;51.664;7.626;2022-12-18T14:38:48;23.10;49.20
2363;DHT22;64265;51.664;7.626;2022-12-18T14:41:17;23.10;49.30
2363;DHT22;64265;51.664;7.626;2022-12-18T14:43:45;23.00;49.50
2363;DHT22;64265;51.664;7.626;2022-12-18T14:46:28;23.00;49.70
2363;DHT22;64265;51.664;7.626;2022-12-18T14:48:56;22.90;49.80
2363;DHT22;64265;51.664;7.626;2022-12-18T14:51:24;22.80;49.90
2363;DHT22;64265;51.664;7.626;2022-12-18T14:53:54;22.80;50.10
2363;DHT22;64265;51.664;7.626;2022-12-18T14:56:23;22.70;50.10
2363;DHT22;64265;51.664;7.626;2022-12-18T14:58:53;22.60;50.30
2363;DHT22;64265;51.664;7.626;2022-12-18T15:01:23;22.60;50.50
2363;DHT22;64265;51.664;7.626;2022-12-18T15:03:50;22.50;50.60
2363;DHT22;64265;51.664;7.626;2022-12-18T15:06:29;22.50;50.70
2363;DHT22;64265;51.664;7.626;2022-12-18T15:08:57;22.50;50.80
2363;DHT22;64265;51.664;7.626;2022-12-18T15:11:35;22.40;50.90
2363;DHT22;64265;51.664;7.626;2022-12-18T15:14:22;22.40;50.90
2363;DHT22;64265;51.664;7.626;2022-12-18T15:16:51;22.40;51.00
2363;DHT22;64265;51.664;7.626;2022-12-18T15:19:19;22.40;51.00
2363;DHT22;64265;51.664;7.626;2022-12-18T15:21:47;22.40;51.00
2363;DHT22;64265;51.664;7.626;2022-12-18T15:24:18;22.50;51.10
2363;DHT22;64265;51.664;7.626;2022-12-18T15:26:46;22.60;51.10
2363;DHT22;64265;51.664;7.626;2022-12-18T15:29:19;22.90;50.80
2363;DHT22;64265;51.664;7.626;2022-12-18T15:31:58;23.10;50.60
2363;DHT22;64265;51.664;7.626;2022-12-18T15:34:25;23.10;50.40
2363;DHT22;64265;51.664;7.626;2022-12-18T15:36:53;23.10;50.50
2363;DHT22;64265;51.664;7.626;2022-12-18T15:39:20;23.10;50.70
2363;DHT22;64265;51.664;7.626;2022-12-18T15:41:47;23.10;50.90
2363;DHT22;64265;51.664;7.626;2022-12-18T15:44:31;23.50;50.90
2363;DHT22;64265;51.664;7.626;2022-12-18T15:46:58;23.70;50.50
2363;DHT22;64265;51.664;7.626;2022-12-18T15:49:25;24.00;50.30
2363;DHT22;64265;51.664;7.626;2022-12-18T15:51:54;24.10;50.20
2363;DHT22;64265;51.664;7.626;2022-12-18T15:54:22;24.20;50.20
2363;DHT22;64265;51.664;7.626;2022-12-18T15:57:03;24.20;50.40
2363;DHT22;64265;51.664;7.626;2022-12-18T15:59:47;24.20;50.80
2363;DHT22;64265;51.664;7.626;2022-12-18T16:02:16;24.20;50.90
2363;DHT22;64265;51.664;7.626;2022-12-18T16:04:43;24.10;50.90
2363;DHT22;64265;51.664;7.626;2022-12-18T16:07:12;24.00;50.90
2363;DHT22;64265;51.664;7.626;2022-12-18T16:09:39;24.00;51.00
2363;DHT22;64265;51.664;7.626;2022-12-18T16:12:06;24.00;51.00
2363;DHT22;64265;51.664;7.626;2022-12-18T16:14:33;24.00;51.10